Terminal Aerodrome Forecast
Issued by NWS

Home | Current Version | Previous Version | Text Only | Print | Product List | Glossary On
Versions: 1 2 3 4 5 6 7 8 9 10 11 12 13 14 15 16 17 18 19 20 21 22 23 24 25 26 27 28 29 30 31 32 33 34 35
000
FTAK31 PAFA 231743 CCA
TAFAQT
TAF COR
PAQT 231743Z 2318/2418 08016KT 4SM -SHSN BR SCT015 OVC025
      TEMPO 2318/2321 2SM -SN BR SCT015 OVC025
     FM232100 09012KT 4SM -SHSN BR BKN015 OVC025
     FM240600 09014KT 2SM -SHSN BR OVC015=

USA.gov is the U.S. government's official web portal to all federal, state and local government web resources and services.